createdAt,value
2022-10-13T00:00:02.877Z,1013.0
2022-10-13T00:15:02.157Z,1012.9
2022-10-13T00:30:02.599Z,1012.8
2022-10-13T00:45:03.048Z,1012.7
2022-10-13T01:00:02.488Z,1012.7
2022-10-13T01:15:02.939Z,1012.6
2022-10-13T01:30:02.352Z,1012.4
2022-10-13T01:45:02.894Z,1012.1
2022-10-13T02:00:02.253Z,1012.0
2022-10-13T02:15:02.896Z,1011.9
2022-10-13T02:30:02.127Z,1011.9
2022-10-13T02:45:02.564Z,1011.9
2022-10-13T03:00:03.040Z,1011.8
2022-10-13T03:15:02.468Z,1011.8
2022-10-13T03:30:02.931Z,1011.7
2022-10-13T03:45:02.353Z,1011.6
2022-10-13T04:00:02.930Z,1011.5
2022-10-13T04:15:02.226Z,1011.4
2022-10-13T04:30:02.904Z,1011.1
2022-10-13T04:45:02.102Z,1011.0
2022-10-13T05:00:02.546Z,1011.1
2022-10-13T05:15:02.997Z,1011.0
2022-10-13T05:30:02.438Z,1010.9
2022-10-13T05:45:02.946Z,1010.8
2022-10-13T06:00:02.271Z,1010.8
2022-10-13T06:15:02.949Z,1010.6
2022-10-13T06:30:02.244Z,1010.4
2022-10-13T06:45:02.632Z,1010.6
2022-10-13T07:00:03.098Z,1010.5
2022-10-13T07:15:02.533Z,1010.6
2022-10-13T07:30:02.974Z,1010.6
2022-10-13T07:45:02.399Z,1010.7
2022-10-13T08:00:02.960Z,1010.6
2022-10-13T08:15:05.995Z,1010.6
2022-10-13T08:30:02.952Z,1010.6
2022-10-13T09:00:02.606Z,1010.6
2022-10-13T09:15:03.052Z,1010.5
2022-10-13T09:30:02.459Z,1010.4
2022-10-13T09:45:02.974Z,1010.5
2022-10-13T10:15:02.996Z,1010.1
2022-10-13T10:30:02.233Z,1010.1
2022-10-13T10:45:02.700Z,1010.0
2022-10-13T11:00:03.129Z,1010.0
2022-10-13T11:15:02.603Z,1009.7
2022-10-13T11:30:02.976Z,1009.6
2022-10-13T11:45:02.435Z,1009.6
2022-10-13T12:00:03.045Z,1009.3
2022-10-13T12:15:06.014Z,1009.3
2022-10-13T12:30:02.749Z,1009.2
2022-10-13T12:45:03.228Z,1009.0
2022-10-13T13:00:02.655Z,1009.0
2022-10-13T13:15:03.113Z,1008.9
2022-10-13T13:30:02.534Z,1008.6
2022-10-13T13:45:03.006Z,1008.8
2022-10-13T14:00:02.534Z,1008.7
2022-10-13T14:15:03.017Z,1008.7
2022-10-13T14:30:02.319Z,1008.6
2022-10-13T14:45:02.782Z,1008.8
2022-10-13T15:00:03.135Z,1008.9
2022-10-13T15:15:02.573Z,1008.8
2022-10-13T15:30:03.051Z,1008.9
2022-10-13T15:45:11.203Z,1008.7
2022-10-13T16:00:03.056Z,1008.9
2022-10-13T16:15:02.297Z,1008.7
2022-10-13T16:30:02.771Z,1008.6
2022-10-13T16:45:03.230Z,1008.6
2022-10-13T17:00:02.654Z,1008.7
2022-10-13T17:15:03.107Z,1008.8
2022-10-13T17:30:02.495Z,1008.7
2022-10-13T17:45:03.086Z,1008.8
2022-10-13T18:00:02.407Z,1008.6
2022-10-13T18:15:03.060Z,1008.4
2022-10-13T18:30:02.279Z,1008.5
2022-10-13T18:45:02.711Z,1008.8
2022-10-13T19:00:03.171Z,1008.7
2022-10-13T19:15:02.615Z,1008.6
2022-10-13T19:30:03.104Z,1008.5
2022-10-13T19:45:02.464Z,1008.6
2022-10-13T20:00:03.073Z,1008.5
2022-10-13T20:15:02.354Z,1008.6
2022-10-13T20:30:02.821Z,1008.5
2022-10-13T20:45:03.236Z,1008.5
2022-10-13T21:00:02.700Z,1008.5
2022-10-13T21:15:03.147Z,1008.5
2022-10-13T21:30:02.607Z,1008.6
2022-10-13T21:45:03.101Z,1008.6
2022-10-13T22:00:02.440Z,1008.5
2022-10-13T22:15:02.209Z,1008.5
2022-10-13T22:30:02.338Z,1008.4
2022-10-13T22:45:02.751Z,1008.4
2022-10-13T23:00:03.201Z,1008.3
2022-10-13T23:15:02.644Z,1008.3
2022-10-13T23:30:03.153Z,1008.2
2022-10-13T23:45:02.538Z,1008.1
